Time;durP1;ratioP1;P1;durP2;ratioP2;P2;SDS_P1;SDS_P2;PMS_P1;PMS_P2;Temp;Humidity;BMP_temperature;BMP_pressure;BME280_temperature;BME280_humidity;BME280_pressure;Samples;Min_cycle;Max_cycle;Signal;HPM_P1;HPM_P2
2023/06/18 00:01:16;;;;;;;4.50;4.10;;;19.70;99.90;;;;;;5103936;27;20221;-77
2023/06/18 00:03:43;;;;;;;4.07;3.78;;;19.60;99.90;;;;;;5099957;27;20712;-77
2023/06/18 00:06:10;;;;;;;5.95;4.18;;;19.60;99.90;;;;;;5099892;27;20240;-77
2023/06/18 00:08:37;;;;;;;4.63;4.22;;;19.60;99.90;;;;;;5100232;27;20287;-75
2023/06/18 00:11:05;;;;;;;4.50;4.10;;;19.50;99.90;;;;;;5103275;27;20269;-75
2023/06/18 00:13:32;;;;;;;4.95;4.15;;;19.50;99.90;;;;;;5098055;27;20201;-77
2023/06/18 00:15:59;;;;;;;4.55;4.07;;;19.40;99.90;;;;;;5105720;27;20251;-76
2023/06/18 00:18:26;;;;;;;4.82;4.38;;;19.40;99.90;;;;;;5103422;27;20637;-76
2023/06/18 00:20:53;;;;;;;4.30;3.92;;;19.40;99.90;;;;;;5101863;27;20239;-77
2023/06/18 00:23:20;;;;;;;3.92;3.63;;;19.40;99.90;;;;;;5101798;27;20192;-76
2023/06/18 00:25:47;;;;;;;4.93;4.47;;;19.30;99.90;;;;;;5112393;27;20227;-76
2023/06/18 00:28:16;;;;;;;4.60;4.20;;;19.30;99.90;;;;;;5126329;27;20339;-76
2023/06/18 00:30:42;;;;;;;4.38;3.90;;;19.30;99.90;;;;;;5098244;27;20229;-77
2023/06/18 00:33:10;;;;;;;4.40;4.00;;;19.30;99.90;;;;;;5101676;27;20284;-77
2023/06/18 00:35:38;;;;;;;4.10;3.70;;;19.30;99.90;;;;;;5096383;27;20206;-76
2023/06/18 00:38:05;;;;;;;4.65;4.25;;;19.20;99.90;;;;;;5104977;27;20224;-76
2023/06/18 00:40:33;;;;;;;4.30;3.90;;;19.30;99.90;;;;;;5096059;27;20301;-77
2023/06/18 00:43:03;;;;;;;4.47;4.07;;;19.20;99.90;;;;;;5096952;27;20207;-77
2023/06/18 00:45:32;;;;;;;4.43;4.03;;;19.20;99.90;;;;;;5101632;27;20293;-77
2023/06/18 00:47:59;;;;;;;4.90;4.40;;;19.20;99.90;;;;;;5101250;27;20216;-76
2023/06/18 00:50:28;;;;;;;4.35;3.95;;;19.20;99.90;;;;;;5103181;27;21656;-77
2023/06/18 00:52:59;;;;;;;4.40;4.00;;;19.20;99.90;;;;;;5107516;27;20198;-76
2023/06/18 00:55:28;;;;;;;5.70;4.60;;;19.20;99.90;;;;;;5125571;27;20275;-76
2023/06/18 00:58:02;;;;;;;4.30;3.90;;;19.20;99.90;;;;;;5104789;27;20802;-77
2023/06/18 01:00:31;;;;;;;4.13;3.72;;;19.10;99.90;;;;;;5109933;27;20288;-77
2023/06/18 01:03:02;;;;;;;4.38;4.07;;;19.10;99.90;;;;;;5104185;27;20201;-77
2023/06/18 01:05:31;;;;;;;4.50;4.10;;;19.10;99.90;;;;;;5106041;27;20228;-76
2023/06/18 01:08:00;;;;;;;4.10;3.80;;;19.10;99.90;;;;;;5108926;27;20229;-76
2023/06/18 01:10:29;;;;;;;4.28;3.88;;;19.10;99.90;;;;;;5105720;27;20193;-77
2023/06/18 01:12:58;;;;;;;4.10;3.70;;;19.00;99.90;;;;;;5109728;27;20209;-77
2023/06/18 01:15:27;;;;;;;4.43;3.85;;;19.00;99.90;;;;;;5109382;27;20571;-77
2023/06/18 01:17:56;;;;;;;4.38;3.88;;;19.00;99.90;;;;;;5102535;27;20217;-76
2023/06/18 01:20:27;;;;;;;4.55;4.15;;;19.00;99.90;;;;;;5103958;27;20205;-76
2023/06/18 01:22:59;;;;;;;4.70;4.30;;;18.90;99.90;;;;;;5106229;27;20201;-77
2023/06/18 01:25:27;;;;;;;4.40;4.00;;;18.90;99.90;;;;;;5099127;28;20223;-77
2023/06/18 01:27:56;;;;;;;4.45;4.05;;;18.80;99.90;;;;;;5109634;28;20243;-77
2023/06/18 01:30:23;;;;;;;4.63;3.90;;;18.80;99.90;;;;;;5107157;28;20701;-77
2023/06/18 01:32:54;;;;;;;4.95;4.18;;;18.80;99.90;;;;;;5106189;28;20204;-76
2023/06/18 01:35:21;;;;;;;4.32;4.00;;;18.70;99.90;;;;;;5105961;28;20197;-76
2023/06/18 01:38:09;;;;;;;4.07;3.78;;;18.70;99.90;;;;;;5103390;28;20221;-76
2023/06/18 01:40:48;;;;;;;4.25;3.83;;;18.70;99.90;;;;;;5103600;28;20802;-76
2023/06/18 01:43:32;;;;;;;4.45;4.05;;;18.70;99.90;;;;;;5105426;28;20849;-77
2023/06/18 01:46:03;;;;;;;4.40;4.00;;;18.70;99.90;;;;;;5105155;28;20269;-76
2023/06/18 01:48:35;;;;;;;4.05;3.75;;;18.60;99.90;;;;;;5105530;28;20225;-77
2023/06/18 01:51:05;;;;;;;5.88;4.30;;;18.60;99.90;;;;;;5110343;28;20280;-77
2023/06/18 01:53:34;;;;;;;4.70;4.28;;;18.60;99.90;;;;;;5123367;28;20269;-76
2023/06/18 01:56:02;;;;;;;4.40;4.00;;;18.50;99.90;;;;;;5108627;27;20201;-76
2023/06/18 01:58:31;;;;;;;4.28;3.80;;;18.50;99.90;;;;;;5108860;28;20225;-76
2023/06/18 02:00:58;;;;;;;4.50;4.10;;;18.50;99.90;;;;;;5098801;28;20670;-77
2023/06/18 02:03:26;;;;;;;4.43;4.03;;;18.40;99.90;;;;;;5097592;28;20228;-76
2023/06/18 02:05:53;;;;;;;4.22;3.83;;;18.40;99.90;;;;;;5105117;28;20208;-76
2023/06/18 02:08:20;;;;;;;4.38;3.97;;;18.30;99.90;;;;;;5101456;28;20220;-75
2023/06/18 02:10:48;;;;;;;4.53;4.13;;;18.30;99.90;;;;;;5105990;28;20284;-75
2023/06/18 02:13:15;;;;;;;4.55;4.15;;;18.30;99.90;;;;;;5103716;28;20209;-76
2023/06/18 02:15:43;;;;;;;4.50;4.10;;;18.30;99.90;;;;;;5102758;28;20229;-76
2023/06/18 02:18:11;;;;;;;4.30;3.90;;;18.30;99.90;;;;;;5109421;28;20270;-76
2023/06/18 02:20:39;;;;;;;4.68;4.28;;;18.20;99.90;;;;;;5124593;28;20181;-76
2023/06/18 02:23:06;;;;;;;4.97;4.55;;;18.20;99.90;;;;;;5111497;28;20236;-77
2023/06/18 02:25:34;;;;;;;4.47;4.07;;;18.20;99.90;;;;;;5106413;28;20772;-76
2023/06/18 02:28:03;;;;;;;4.88;4.45;;;18.20;99.90;;;;;;5101655;27;20225;-76
2023/06/18 02:30:30;;;;;;;4.80;4.40;;;18.20;99.90;;;;;;5101940;27;20284;-77
2023/06/18 02:32:58;;;;;;;4.63;4.15;;;18.20;99.90;;;;;;5109835;27;20283;-76
2023/06/18 02:35:25;;;;;;;4.85;4.45;;;18.10;99.90;;;;;;5111545;27;20573;-77
2023/06/18 02:37:52;;;;;;;4.50;4.10;;;18.10;99.90;;;;;;5107165;27;20227;-75
2023/06/18 02:40:20;;;;;;;4.90;4.50;;;18.10;99.90;;;;;;5107983;27;20215;-76
2023/06/18 02:42:50;;;;;;;4.38;4.00;;;18.10;99.90;;;;;;5108633;27;20839;-76
2023/06/18 02:45:21;;;;;;;4.47;4.07;;;18.10;99.90;;;;;;5106926;27;20292;-76
2023/06/18 02:47:48;;;;;;;4.88;4.47;;;18.10;99.90;;;;;;5104513;27;20734;-77
2023/06/18 02:50:16;;;;;;;4.60;4.20;;;18.10;99.90;;;;;;5128217;27;20192;-76
2023/06/18 02:52:44;;;;;;;4.18;3.80;;;18.10;99.90;;;;;;5110922;27;20682;-77
2023/06/18 02:55:12;;;;;;;4.57;4.18;;;18.00;99.90;;;;;;5105839;27;20204;-75
2023/06/18 02:57:40;;;;;;;5.10;4.60;;;18.00;99.90;;;;;;5112340;27;20278;-77
2023/06/18 03:00:10;;;;;;;4.32;3.92;;;18.00;99.90;;;;;;5113110;27;20280;-76
2023/06/18 03:02:39;;;;;;;5.53;4.35;;;18.00;99.90;;;;;;5108631;27;20202;-75
2023/06/18 03:05:07;;;;;;;5.90;4.32;;;18.00;99.90;;;;;;5103689;27;20681;-76
2023/06/18 03:07:34;;;;;;;4.20;3.80;;;18.00;99.90;;;;;;5101130;27;20303;-76
2023/06/18 03:10:01;;;;;;;5.00;4.35;;;17.90;99.90;;;;;;5104670;27;20232;-77
2023/06/18 03:12:28;;;;;;;4.97;4.47;;;17.90;99.90;;;;;;5105684;27;20652;-76
2023/06/18 03:14:55;;;;;;;4.40;4.00;;;17.90;99.90;;;;;;5108939;27;20176;-76
2023/06/18 03:17:22;;;;;;;4.65;4.25;;;17.90;99.90;;;;;;5114810;27;20269;-75
2023/06/18 03:19:50;;;;;;;4.45;4.05;;;17.90;99.90;;;;;;5106777;27;20269;-76
2023/06/18 03:22:18;;;;;;;4.65;4.25;;;17.90;99.90;;;;;;5106807;27;20227;-76
2023/06/18 03:24:45;;;;;;;4.47;4.07;;;17.90;99.90;;;;;;5107682;27;20197;-76
2023/06/18 03:27:13;;;;;;;4.28;3.88;;;17.90;99.90;;;;;;5109595;27;20217;-76
2023/06/18 03:29:40;;;;;;;5.00;4.60;;;17.90;99.90;;;;;;5110526;27;20208;-76
2023/06/18 03:32:09;;;;;;;4.63;4.22;;;17.80;99.90;;;;;;5110056;27;20201;-75
2023/06/18 03:34:36;;;;;;;4.68;4.28;;;17.80;99.90;;;;;;5102925;27;20201;-76
2023/06/18 03:37:06;;;;;;;4.60;4.20;;;17.80;99.90;;;;;;5105723;27;20792;-76
2023/06/18 03:39:33;;;;;;;4.45;4.15;;;17.70;99.90;;;;;;5110757;27;20200;-76
2023/06/18 03:41:59;;;;;;;4.78;4.38;;;17.70;99.90;;;;;;5101179;27;20228;-75
2023/06/18 03:44:26;;;;;;;4.72;4.32;;;17.70;99.90;;;;;;5102446;27;20885;-77
2023/06/18 03:46:53;;;;;;;4.90;4.50;;;17.70;99.90;;;;;;5122592;27;20280;-77
2023/06/18 03:49:21;;;;;;;4.70;4.30;;;17.70;99.90;;;;;;5111159;27;20204;-76
2023/06/18 03:51:47;;;;;;;4.70;4.30;;;17.70;99.90;;;;;;5106679;27;20200;-76
2023/06/18 03:54:16;;;;;;;4.60;4.20;;;17.70;99.90;;;;;;5109418;27;20193;-76
2023/06/18 03:56:43;;;;;;;5.32;4.68;;;17.70;99.90;;;;;;5102168;27;20266;-75
2023/06/18 03:59:09;;;;;;;5.30;4.55;;;17.70;99.90;;;;;;5110198;27;20312;-76
2023/06/18 04:01:37;;;;;;;4.32;4.03;;;17.80;99.90;;;;;;5102017;27;20236;-76
2023/06/18 04:04:04;;;;;;;5.68;4.63;;;17.80;99.90;;;;;;5111372;27;20208;-76
2023/06/18 04:06:31;;;;;;;4.60;4.20;;;17.80;99.90;;;;;;5104575;27;20219;-76
2023/06/18 04:08:58;;;;;;;6.35;4.90;;;17.80;99.90;;;;;;5108483;27;20257;-76
2023/06/18 04:11:27;;;;;;;5.75;5.25;;;17.90;99.90;;;;;;5110219;27;20287;-76
2023/06/18 04:13:54;;;;;;;4.97;4.57;;;17.90;99.90;;;;;;5134733;27;20201;-76
2023/06/18 04:16:21;;;;;;;4.78;4.38;;;17.90;99.90;;;;;;5112178;27;20192;-75
2023/06/18 04:18:48;;;;;;;4.43;4.03;;;18.00;99.90;;;;;;5103538;27;20220;-76
2023/06/18 04:21:15;;;;;;;5.32;4.82;;;18.00;99.90;;;;;;5107427;27;20196;-77
2023/06/18 04:23:42;;;;;;;5.28;4.78;;;18.10;99.90;;;;;;5105470;27;20296;-76
2023/06/18 04:26:09;;;;;;;5.05;4.55;;;18.10;99.90;;;;;;5110570;27;20303;-76
2023/06/18 04:28:37;;;;;;;4.88;4.47;;;18.10;99.90;;;;;;5105023;27;20228;-76
2023/06/18 04:31:04;;;;;;;5.00;4.60;;;18.10;99.90;;;;;;5104138;27;20220;-75
2023/06/18 04:33:31;;;;;;;5.15;4.65;;;18.10;99.90;;;;;;5108031;27;20208;-76
2023/06/18 04:35:58;;;;;;;5.97;4.68;;;18.20;99.90;;;;;;5112812;27;20224;-76
2023/06/18 04:38:25;;;;;;;4.57;4.18;;;18.20;99.90;;;;;;5105021;27;20310;-75
2023/06/18 04:40:52;;;;;;;5.45;4.95;;;18.20;99.90;;;;;;5096769;27;20283;-76
2023/06/18 04:43:19;;;;;;;5.22;4.82;;;18.20;99.90;;;;;;5106987;27;20235;-76
2023/06/18 04:45:48;;;;;;;5.07;4.60;;;18.20;99.90;;;;;;5114893;28;20912;-76
2023/06/18 04:48:15;;;;;;;5.32;4.82;;;18.20;99.90;;;;;;5106300;27;20265;-77
2023/06/18 04:50:42;;;;;;;5.30;4.88;;;18.10;99.90;;;;;;5109723;27;20261;-76
2023/06/18 04:53:09;;;;;;;5.38;4.88;;;18.10;99.90;;;;;;5103988;27;20805;-78
2023/06/18 04:55:36;;;;;;;4.95;4.55;;;18.10;99.90;;;;;;5106736;27;20236;-76
2023/06/18 04:58:04;;;;;;;6.00;5.38;;;18.10;99.90;;;;;;5106786;27;20244;-77
2023/06/18 05:00:33;;;;;;;5.22;4.72;;;18.20;99.90;;;;;;5105089;27;20204;-76
2023/06/18 05:03:01;;;;;;;5.68;5.18;;;18.20;99.90;;;;;;5106441;27;20193;-76
2023/06/18 05:05:28;;;;;;;5.55;4.97;;;18.30;99.90;;;;;;5108606;27;20200;-76
2023/06/18 05:07:56;;;;;;;5.35;4.85;;;18.40;99.90;;;;;;5101957;27;20259;-76
2023/06/18 05:10:23;;;;;;;5.90;5.32;;;18.50;99.90;;;;;;5112370;27;20702;-76
2023/06/18 05:12:50;;;;;;;5.10;4.70;;;18.60;99.90;;;;;;5103792;27;20213;-77
2023/06/18 05:15:18;;;;;;;5.88;5.28;;;18.80;99.90;;;;;;5107175;27;20205;-76
2023/06/18 05:17:45;;;;;;;5.28;4.78;;;18.90;99.90;;;;;;5103838;28;20208;-77
2023/06/18 05:20:14;;;;;;;5.90;5.40;;;19.00;99.90;;;;;;5108370;27;20205;-76
2023/06/18 05:22:41;;;;;;;5.95;5.35;;;19.00;99.90;;;;;;5102511;27;20655;-75
2023/06/18 05:25:09;;;;;;;5.72;5.20;;;19.10;99.90;;;;;;5110311;27;20219;-77
2023/06/18 05:27:36;;;;;;;5.95;5.45;;;19.20;99.90;;;;;;5101994;28;20299;-76
2023/06/18 05:30:03;;;;;;;5.85;5.25;;;19.40;99.90;;;;;;5103985;28;20284;-75
2023/06/18 05:32:30;;;;;;;6.32;5.72;;;19.40;99.90;;;;;;5110163;28;20196;-76
2023/06/18 05:34:57;;;;;;;6.05;5.50;;;19.50;99.90;;;;;;5103654;28;20283;-76
2023/06/18 05:37:25;;;;;;;5.82;5.25;;;19.60;99.90;;;;;;5106639;28;20303;-76
2023/06/18 05:39:52;;;;;;;6.68;6.07;;;19.70;99.90;;;;;;5104989;28;21024;-76
2023/06/18 05:42:19;;;;;;;6.68;6.05;;;19.80;99.90;;;;;;5124744;28;20211;-77
2023/06/18 05:44:46;;;;;;;6.70;5.85;;;19.90;99.90;;;;;;5107732;28;20650;-76
2023/06/18 05:47:13;;;;;;;6.45;5.75;;;20.00;99.90;;;;;;5109134;28;20244;-76
2023/06/18 05:49:40;;;;;;;6.53;5.93;;;20.00;99.90;;;;;;5106924;28;20201;-76
2023/06/18 05:52:07;;;;;;;7.63;5.63;;;20.10;99.90;;;;;;5107975;28;20616;-77
2023/06/18 05:54:36;;;;;;;6.90;6.07;;;20.00;99.90;;;;;;5111223;28;20259;-77
2023/06/18 05:57:03;;;;;;;6.38;5.80;;;20.20;99.90;;;;;;5108740;27;20344;-76
2023/06/18 05:59:34;;;;;;;5.53;5.03;;;20.30;99.90;;;;;;5109914;28;20257;-74
2023/06/18 06:02:00;;;;;;;6.65;6.05;;;20.30;99.90;;;;;;5110892;27;20204;-77
2023/06/18 06:04:28;;;;;;;7.15;6.45;;;20.40;99.90;;;;;;5109223;28;20695;-77
2023/06/18 06:06:55;;;;;;;6.40;5.80;;;20.40;99.90;;;;;;5121234;27;20216;-76
2023/06/18 06:09:22;;;;;;;6.63;6.03;;;20.40;99.90;;;;;;5114394;27;20281;-77
2023/06/18 06:11:51;;;;;;;7.38;5.95;;;20.50;99.90;;;;;;5109582;27;20276;-75
2023/06/18 06:14:18;;;;;;;7.47;6.78;;;20.50;99.90;;;;;;5112512;27;20197;-75
2023/06/18 06:16:45;;;;;;;7.45;6.30;;;20.60;99.90;;;;;;5116774;27;20188;-76
2023/06/18 06:19:11;;;;;;;7.53;6.82;;;20.70;99.90;;;;;;5111085;27;20240;-76
2023/06/18 06:21:38;;;;;;;6.60;6.00;;;20.70;99.90;;;;;;5106410;27;20246;-77
2023/06/18 06:24:06;;;;;;;7.53;6.70;;;20.80;99.90;;;;;;5109741;27;20509;-76
2023/06/18 06:26:32;;;;;;;7.32;6.63;;;20.80;99.90;;;;;;5115076;27;20288;-76
2023/06/18 06:29:01;;;;;;;6.40;5.80;;;20.90;99.90;;;;;;5110343;27;20248;-77
2023/06/18 06:31:28;;;;;;;7.40;6.72;;;20.90;99.90;;;;;;5112464;27;20199;-77
2023/06/18 06:33:55;;;;;;;7.60;6.80;;;21.00;99.90;;;;;;5104286;27;20197;-75
2023/06/18 06:36:22;;;;;;;6.95;6.35;;;21.10;99.90;;;;;;5114457;27;20253;-76
2023/06/18 06:38:49;;;;;;;6.55;5.95;;;21.10;99.90;;;;;;5111629;27;20248;-76
2023/06/18 06:41:16;;;;;;;6.60;5.75;;;21.20;99.90;;;;;;5123194;27;20200;-76
2023/06/18 06:43:43;;;;;;;6.75;5.68;;;21.30;99.90;;;;;;5109253;27;20200;-77
2023/06/18 06:46:11;;;;;;;6.65;5.90;;;21.40;99.90;;;;;;5113661;27;20200;-76
2023/06/18 06:48:39;;;;;;;5.93;5.43;;;21.60;99.90;;;;;;5102971;27;20302;-77
2023/06/18 06:51:06;;;;;;;8.02;6.38;;;21.80;99.90;;;;;;5107797;27;20261;-76
2023/06/18 06:53:33;;;;;;;6.47;5.90;;;22.00;99.90;;;;;;5111351;27;20236;-76
2023/06/18 06:56:00;;;;;;;6.00;5.50;;;22.10;99.90;;;;;;5108841;27;20225;-77
2023/06/18 06:58:27;;;;;;;6.50;5.90;;;22.20;99.90;;;;;;5110867;27;20706;-76
2023/06/18 07:00:54;;;;;;;7.07;6.38;;;22.10;99.90;;;;;;5109408;27;20205;-77
2023/06/18 07:03:23;;;;;;;7.40;6.65;;;22.10;99.90;;;;;;5108316;27;20638;-76
2023/06/18 07:05:50;;;;;;;7.40;6.47;;;22.10;99.90;;;;;;5113655;27;20661;-76
2023/06/18 07:08:17;;;;;;;7.22;6.57;;;22.10;99.90;;;;;;5112824;27;20269;-76
2023/06/18 07:10:44;;;;;;;6.78;6.18;;;22.10;99.90;;;;;;5110378;27;20233;-76
2023/06/18 07:13:11;;;;;;;7.15;6.50;;;22.20;99.90;;;;;;5109609;27;20204;-76
2023/06/18 07:15:38;;;;;;;7.20;6.53;;;22.20;99.90;;;;;;5113563;27;20205;-76
2023/06/18 07:18:05;;;;;;;7.35;6.65;;;22.20;99.90;;;;;;5107575;27;20209;-77
2023/06/18 07:20:34;;;;;;;6.80;6.20;;;22.30;99.90;;;;;;5110482;27;20215;-76
2023/06/18 07:23:01;;;;;;;7.03;6.32;;;22.40;99.90;;;;;;5107042;27;20236;-76
2023/06/18 07:25:28;;;;;;;7.50;6.60;;;22.60;99.90;;;;;;5110403;27;20204;-76
2023/06/18 07:27:55;;;;;;;7.28;6.57;;;22.80;99.90;;;;;;5106789;27;20217;-76
2023/06/18 07:30:22;;;;;;;7.45;6.75;;;22.90;99.90;;;;;;5107771;27;20227;-78
2023/06/18 07:32:49;;;;;;;7.20;6.50;;;23.00;99.90;;;;;;5108324;27;20217;-76
2023/06/18 07:35:16;;;;;;;7.25;6.55;;;23.10;99.90;;;;;;5111016;27;20196;-76
2023/06/18 07:37:44;;;;;;;6.78;6.18;;;23.40;99.90;;;;;;5120216;27;20262;-76
2023/06/18 07:40:12;;;;;;;7.32;6.63;;;23.40;99.90;;;;;;5104784;27;20202;-76
2023/06/18 07:42:39;;;;;;;7.20;6.50;;;23.50;99.90;;;;;;5113531;27;20280;-77
2023/06/18 07:45:07;;;;;;;6.15;5.63;;;23.50;99.90;;;;;;5105137;27;20747;-76
2023/06/18 07:47:34;;;;;;;7.00;6.40;;;23.60;99.90;;;;;;5113481;27;20239;-75
2023/06/18 07:50:02;;;;;;;6.70;6.10;;;23.70;99.90;;;;;;5106839;27;20189;-76
2023/06/18 07:52:29;;;;;;;6.93;6.32;;;23.80;99.90;;;;;;5111360;27;20201;-76
2023/06/18 07:54:57;;;;;;;7.30;6.60;;;24.00;99.90;;;;;;5107639;27;20213;-76
2023/06/18 07:57:24;;;;;;;6.70;6.10;;;24.00;99.90;;;;;;5115033;27;20279;-76
2023/06/18 07:59:51;;;;;;;6.97;6.28;;;24.10;99.90;;;;;;5118905;27;20216;-77
2023/06/18 08:02:18;;;;;;;7.10;6.40;;;24.20;99.90;;;;;;5111486;27;20832;-76
2023/06/18 08:04:45;;;;;;;6.43;5.82;;;24.20;99.90;;;;;;5109607;27;20251;-76
2023/06/18 08:07:12;;;;;;;7.03;6.43;;;24.40;99.90;;;;;;5103794;27;20289;-77
2023/06/18 08:09:39;;;;;;;7.50;6.80;;;24.60;99.90;;;;;;5105181;27;20197;-77
2023/06/18 08:12:09;;;;;;;6.70;6.13;;;24.50;99.90;;;;;;5102876;27;20308;-77
2023/06/18 08:14:36;;;;;;;7.03;6.43;;;24.50;99.90;;;;;;5094533;27;20197;-76
2023/06/18 08:17:02;;;;;;;7.47;6.88;;;24.40;99.90;;;;;;5100231;27;20192;-77
2023/06/18 08:19:30;;;;;;;6.68;6.07;;;24.60;99.90;;;;;;5105299;27;20261;-77
2023/06/18 08:21:57;;;;;;;6.63;6.03;;;24.70;99.90;;;;;;5101304;27;20697;-78
2023/06/18 08:24:25;;;;;;;6.50;5.90;;;24.70;99.90;;;;;;5103251;27;20222;-77
2023/06/18 08:26:53;;;;;;;7.32;6.57;;;24.80;99.90;;;;;;5098714;27;20768;-77
2023/06/18 08:29:22;;;;;;;6.95;6.35;;;25.00;99.90;;;;;;5094078;27;20212;-76
2023/06/18 08:31:49;;;;;;;6.97;6.32;;;25.00;99.90;;;;;;5103363;27;20203;-77
2023/06/18 08:34:15;;;;;;;6.45;5.85;;;25.00;99.90;;;;;;5102853;27;20641;-77
2023/06/18 08:36:46;;;;;;;6.55;5.95;;;25.10;99.90;;;;;;5101792;27;20223;-77
2023/06/18 08:39:13;;;;;;;8.05;7.07;;;25.20;99.90;;;;;;5100266;27;20228;-76
2023/06/18 08:41:43;;;;;;;9.40;6.57;;;25.30;99.90;;;;;;5100862;27;20233;-77
2023/06/18 08:44:10;;;;;;;7.50;6.80;;;25.30;99.90;;;;;;5095317;27;20876;-76
2023/06/18 08:46:42;;;;;;;7.07;6.18;;;25.20;99.90;;;;;;5098754;27;20655;-77
2023/06/18 08:49:11;;;;;;;6.97;6.38;;;25.20;99.90;;;;;;5098514;27;20296;-77
2023/06/18 08:51:40;;;;;;;6.80;6.20;;;25.30;99.90;;;;;;5099312;27;20353;-77
2023/06/18 08:54:14;;;;;;;7.05;6.35;;;25.50;99.90;;;;;;5103326;27;20197;-78
2023/06/18 08:56:46;;;;;;;7.30;6.55;;;25.60;99.90;;;;;;5098700;27;20296;-76
2023/06/18 08:59:13;;;;;;;6.68;6.07;;;25.60;99.90;;;;;;5096117;27;21667;-76
2023/06/18 09:01:43;;;;;;;6.57;6.07;;;25.60;99.90;;;;;;5099239;27;20193;-77
2023/06/18 09:04:11;;;;;;;6.75;6.15;;;25.60;99.90;;;;;;5100633;27;20706;-76
2023/06/18 09:06:39;;;;;;;6.63;5.80;;;25.70;99.90;;;;;;5101130;27;20224;-78
2023/06/18 09:09:06;;;;;;;7.22;6.63;;;25.90;99.90;;;;;;5100257;27;20592;-77
2023/06/18 09:11:33;;;;;;;6.22;5.72;;;26.00;99.90;;;;;;5098459;27;20200;-77
2023/06/18 09:14:01;;;;;;;9.93;6.45;;;26.00;99.90;;;;;;5101981;27;20204;-77
2023/06/18 09:16:28;;;;;;;7.47;6.50;;;26.30;99.90;;;;;;5101522;27;20231;-77
2023/06/18 09:18:57;;;;;;;7.15;6.45;;;26.30;99.90;;;;;;5099267;27;20236;-78
2023/06/18 09:21:38;;;;;;;7.35;6.03;;;26.20;99.90;;;;;;5096503;28;20926;-77
2023/06/18 09:24:07;;;;;;;6.47;5.95;;;26.30;99.90;;;;;;5099588;27;20550;-76
2023/06/18 09:26:34;;;;;;;6.68;6.07;;;26.40;99.90;;;;;;5099190;27;20212;-78
2023/06/18 09:29:04;;;;;;;6.90;6.30;;;26.50;99.90;;;;;;5097870;28;20212;-78
2023/06/18 09:31:31;;;;;;;6.72;6.13;;;26.40;99.90;;;;;;5103253;28;20769;-80
2023/06/18 09:34:12;;;;;;;6.55;5.95;;;26.70;99.90;;;;;;5100905;28;20235;-78
2023/06/18 09:36:41;;;;;;;6.80;6.20;;;26.70;99.90;;;;;;5104660;28;20200;-78
2023/06/18 09:39:19;;;;;;;6.88;6.20;;;26.60;99.90;;;;;;5098124;28;20217;-77
2023/06/18 09:41:46;;;;;;;6.60;6.00;;;26.60;99.90;;;;;;5098130;27;22264;-76
2023/06/18 09:44:14;;;;;;;6.68;5.70;;;26.70;99.90;;;;;;5104707;27;20196;-78
2023/06/18 09:46:46;;;;;;;7.00;6.40;;;27.00;99.90;;;;;;5103406;27;20277;-78
2023/06/18 09:49:17;;;;;;;6.85;6.22;;;27.10;99.90;;;;;;5105319;27;20215;-78
2023/06/18 09:51:44;;;;;;;6.85;6.25;;;27.20;99.90;;;;;;5111869;27;20197;-78
2023/06/18 09:54:12;;;;;;;8.93;6.57;;;27.20;99.90;;;;;;5098248;27;20200;-77
2023/06/18 09:56:39;;;;;;;6.40;5.80;;;27.10;99.90;;;;;;5101107;27;20236;-78
2023/06/18 09:59:06;;;;;;;7.07;6.47;;;27.20;99.90;;;;;;5104876;27;20221;-77
2023/06/18 10:01:46;;;;;;;6.25;5.70;;;27.40;99.90;;;;;;5099452;27;20201;-78
2023/06/18 10:04:14;;;;;;;6.55;6.03;;;27.30;99.90;;;;;;5094863;27;20229;-78
2023/06/18 10:06:48;;;;;;;7.55;6.15;;;27.40;99.90;;;;;;5098375;27;20851;-78
2023/06/18 10:09:15;;;;;;;6.93;6.10;;;27.60;99.90;;;;;;5098161;28;20262;-78
2023/06/18 10:11:43;;;;;;;6.57;5.97;;;27.70;99.90;;;;;;5097406;28;20766;-77
2023/06/18 10:14:12;;;;;;;6.70;6.07;;;27.80;99.90;;;;;;5104486;27;20780;-78
2023/06/18 10:16:44;;;;;;;6.85;6.15;;;27.70;99.90;;;;;;5099025;27;20201;-78
2023/06/18 10:19:15;;;;;;;6.60;5.97;;;27.40;99.90;;;;;;5101548;27;20213;-77
2023/06/18 10:21:48;;;;;;;6.38;5.88;;;27.40;99.90;;;;;;5105003;27;20730;-77
2023/06/18 10:24:18;;;;;;;7.75;6.50;;;27.60;99.90;;;;;;5104700;27;20205;-77
2023/06/18 10:26:47;;;;;;;6.05;5.55;;;27.70;99.90;;;;;;5107878;27;20288;-77
2023/06/18 10:29:17;;;;;;;6.75;6.15;;;27.70;99.90;;;;;;5107051;27;20248;-80
2023/06/18 10:31:49;;;;;;;6.72;6.13;;;27.70;99.90;;;;;;5103800;27;20666;-78
2023/06/18 10:34:18;;;;;;;6.38;5.78;;;27.70;99.90;;;;;;5106706;27;20197;-78
2023/06/18 10:36:46;;;;;;;6.82;6.18;;;27.60;99.90;;;;;;5103880;27;20229;-76
2023/06/18 10:39:13;;;;;;;6.88;6.20;;;27.60;99.90;;;;;;5099144;27;20240;-78
2023/06/18 10:41:45;;;;;;;6.28;5.70;;;27.60;99.90;;;;;;5102848;27;20654;-78
2023/06/18 10:44:12;;;;;;;8.73;6.32;;;27.80;99.90;;;;;;5099913;27;20280;-78
2023/06/18 10:46:39;;;;;;;6.35;5.85;;;27.90;99.90;;;;;;5103603;27;20262;-79
2023/06/18 10:49:14;;;;;;;6.50;5.90;;;28.00;99.90;;;;;;5096363;27;20230;-77
2023/06/18 10:51:43;;;;;;;6.75;6.15;;;28.10;99.90;;;;;;5099103;27;20189;-78
2023/06/18 10:54:29;;;;;;;6.13;5.63;;;28.10;99.90;;;;;;5100834;27;20658;-77
2023/06/18 10:56:57;;;;;;;6.60;6.00;;;28.20;99.90;;;;;;5104386;27;20204;-77
2023/06/18 10:59:41;;;;;;;6.38;5.88;;;28.30;99.90;;;;;;5098026;27;20278;-78
2023/06/18 11:02:08;;;;;;;6.97;6.22;;;28.30;99.90;;;;;;5098433;27;20208;-77
2023/06/18 11:04:36;;;;;;;6.85;6.28;;;28.30;99.90;;;;;;5105799;27;20926;-77
2023/06/18 11:07:15;;;;;;;6.72;6.13;;;28.40;99.90;;;;;;5101839;27;20209;-76
2023/06/18 11:09:52;;;;;;;6.70;6.13;;;28.40;99.90;;;;;;5105069;27;20241;-76
2023/06/18 11:12:20;;;;;;;6.22;5.65;;;28.60;99.90;;;;;;5106563;27;20716;-77
2023/06/18 11:15:21;;;;;;;6.30;5.70;;;28.70;99.90;;;;;;5098996;27;20251;-77
2023/06/18 11:17:50;;;;;;;6.25;5.75;;;28.90;99.90;;;;;;5013562;28;20224;-77
2023/06/18 11:20:19;;;;;;;6.30;5.80;;;29.10;99.90;;;;;;5012136;28;20221;-77
2023/06/18 11:22:57;;;;;;;6.70;6.00;;;29.00;99.90;;;;;;5054742;27;20200;-77
2023/06/18 11:25:26;;;;;;;6.93;6.25;;;29.20;99.90;;;;;;5100156;27;20258;-78
2023/06/18 11:27:58;;;;;;;5.40;5.00;;;29.20;99.90;;;;;;5100581;27;20244;-79
2023/06/18 11:30:25;;;;;;;8.90;5.95;;;29.20;99.90;;;;;;5093663;27;20202;-78
2023/06/18 11:32:52;;;;;;;6.07;5.55;;;29.40;99.90;;;;;;5097593;27;20196;-78
2023/06/18 11:35:20;;;;;;;6.35;5.65;;;29.50;99.90;;;;;;5097303;27;20275;-78
2023/06/18 11:37:49;;;;;;;6.47;5.20;;;29.60;99.90;;;;;;5099179;27;20241;-77
2023/06/18 11:40:16;;;;;;;6.65;5.40;;;29.60;99.90;;;;;;5103357;27;20204;-77
2023/06/18 11:42:50;;;;;;;6.63;6.03;;;29.60;99.90;;;;;;5098068;27;20675;-76
2023/06/18 11:45:20;;;;;;;6.05;5.50;;;29.40;99.90;;;;;;5093361;27;20197;-77
2023/06/18 11:47:52;;;;;;;6.68;5.97;;;29.30;99.90;;;;;;5098441;27;20579;-77
2023/06/18 11:50:20;;;;;;;6.45;5.85;;;29.20;99.90;;;;;;5100338;27;20293;-77
2023/06/18 11:52:49;;;;;;;5.80;5.28;;;29.20;99.90;;;;;;5096143;27;20201;-77
2023/06/18 11:55:18;;;;;;;6.05;5.55;;;29.20;99.90;;;;;;5097068;27;20220;-77
2023/06/18 11:57:46;;;;;;;6.15;5.65;;;29.30;99.90;;;;;;5097263;27;20217;-78
2023/06/18 12:00:14;;;;;;;6.15;5.55;;;29.30;99.90;;;;;;5099504;27;20284;-78
2023/06/18 12:02:42;;;;;;;5.43;4.93;;;29.40;99.90;;;;;;5096610;27;20273;-77
2023/06/18 12:05:10;;;;;;;6.57;5.47;;;29.60;99.90;;;;;;5093703;27;20231;-77
2023/06/18 12:07:41;;;;;;;6.63;6.03;;;29.60;99.90;;;;;;5097658;27;20233;-79
2023/06/18 12:10:12;;;;;;;6.32;5.75;;;29.50;99.90;;;;;;5098141;27;20289;-76
2023/06/18 12:12:50;;;;;;;6.07;5.57;;;29.40;99.90;;;;;;5094079;27;20237;-77
2023/06/18 12:15:20;;;;;;;6.70;6.00;;;29.40;99.90;;;;;;5100147;27;20196;-77
2023/06/18 12:17:57;;;;;;;6.10;5.60;;;29.40;99.90;;;;;;5096916;27;20228;-76
2023/06/18 12:20:27;;;;;;;8.02;6.07;;;29.50;99.90;;;;;;5100279;27;20207;-77
2023/06/18 12:22:55;;;;;;;6.65;5.88;;;29.60;99.90;;;;;;5100123;27;20200;-77
2023/06/18 12:25:26;;;;;;;6.15;5.57;;;29.50;99.90;;;;;;5098678;27;20952;-76
2023/06/18 12:27:54;;;;;;;6.50;5.90;;;29.50;99.90;;;;;;5099794;27;20305;-78
2023/06/18 12:30:30;;;;;;;6.55;5.75;;;29.50;99.90;;;;;;5101253;27;20246;-76
2023/06/18 12:33:02;;;;;;;6.70;6.03;;;29.50;99.90;;;;;;5098782;27;20703;-77
2023/06/18 12:35:31;;;;;;;6.32;5.80;;;29.50;99.90;;;;;;5095088;27;20205;-77
2023/06/18 12:38:03;;;;;;;5.88;4.95;;;29.50;99.90;;;;;;5095115;27;20256;-77
2023/06/18 12:40:32;;;;;;;6.20;5.70;;;29.70;99.90;;;;;;5090591;27;20232;-76
2023/06/18 12:43:00;;;;;;;6.57;6.03;;;29.90;99.90;;;;;;5097691;27;20279;-78
2023/06/18 12:45:31;;;;;;;5.28;4.85;;;29.90;99.90;;;;;;5095902;27;20193;-77
2023/06/18 12:47:59;;;;;;;6.07;5.57;;;29.90;99.90;;;;;;5095738;27;20950;-77
2023/06/18 12:50:46;;;;;;;6.35;5.80;;;29.90;99.90;;;;;;5099199;27;20242;-77
2023/06/18 12:53:15;;;;;;;6.50;5.95;;;29.90;99.90;;;;;;5103551;27;20204;-76
2023/06/18 12:55:44;;;;;;;6.32;5.72;;;29.80;99.90;;;;;;5102758;27;20203;-77